createdAt,value
2023-01-25T07:14:06.181Z,140622.88
2023-01-25T07:19:13.213Z,140626.56
2023-01-25T07:24:19.851Z,140625.34
2023-01-25T07:29:24.799Z,140648.69
2023-01-25T07:34:28.999Z,140645.03
2023-01-25T07:39:32.456Z,140640.13
2023-01-25T07:44:37.295Z,140638.88
2023-01-25T07:49:49.265Z,140649.94
2023-01-25T07:54:52.612Z,140656.06
2023-01-25T07:59:57.294Z,140659.75
2023-01-25T08:05:00.702Z,140665.91
2023-01-25T08:10:04.274Z,140672.06
2023-01-25T08:15:09.870Z,140691.69
2023-01-25T08:20:13.965Z,140712.59
2023-01-25T08:25:19.548Z,140740.84
2023-01-25T08:30:24.545Z,140764.22
2023-01-25T08:35:28.328Z,140739.63
2023-01-25T08:40:31.792Z,140763.00
2023-01-25T08:45:37.192Z,140737.19
2023-01-25T08:50:40.597Z,140756.84
2023-01-25T08:55:44.026Z,140723.69
2023-01-25T09:00:51.380Z,140690.47
2023-01-25T09:05:57.837Z,140679.41
2023-01-25T09:11:05.280Z,140717.50
2023-01-25T09:16:11.003Z,140726.13
2023-01-25T09:21:17.915Z,140711.34
2023-01-25T09:26:21.432Z,140676.97
2023-01-25T09:31:28.789Z,140686.78
2023-01-25T09:36:47.954Z,140674.50
2023-01-25T09:42:21.398Z,140692.91
2023-01-25T09:47:30.520Z,140692.91
2023-01-25T09:52:55.105Z,140654.84
2023-01-25T09:58:00.929Z,140664.66
2023-01-25T10:03:11.632Z,140667.16
2023-01-25T10:08:20.457Z,140680.63
2023-01-25T10:13:25.208Z,140694.19
2023-01-25T10:18:33.105Z,140689.22
2023-01-25T10:23:45.690Z,140675.72
2023-01-25T10:28:52.166Z,140660.97
2023-01-25T10:34:00.146Z,140627.81
2023-01-25T10:39:07.411Z,140656.06
2023-01-25T10:44:25.351Z,140633.94
2023-01-25T10:49:37.122Z,140679.41
2023-01-25T10:54:40.548Z,140690.47
2023-01-25T10:59:46.077Z,140697.88
2023-01-25T11:04:53.401Z,140719.94
2023-01-25T11:09:57.017Z,140712.59
2023-01-25T11:15:20.328Z,140722.44
2023-01-25T11:20:25.911Z,140731.03
2023-01-25T11:25:31.322Z,140726.13
2023-01-25T11:30:34.980Z,140737.19
2023-01-25T11:35:44.988Z,140723.69
2023-01-25T11:40:50.914Z,140688.00
2023-01-25T11:46:12.190Z,140696.63
2023-01-25T11:51:24.977Z,140699.09
2023-01-25T11:56:33.709Z,140631.47
2023-01-25T12:01:39.167Z,140632.72
2023-01-25T12:06:50.548Z,140641.34
2023-01-25T12:11:57.578Z,140648.69
2023-01-25T12:17:09.249Z,140640.13
2023-01-25T12:22:29.532Z,140643.78
2023-01-25T12:27:40.741Z,140632.72
2023-01-25T12:32:46.948Z,140599.53
2023-01-25T12:37:54.938Z,140625.34
2023-01-25T12:43:00.000Z,140597.09
2023-01-25T12:48:07.120Z,140626.56
2023-01-25T12:53:20.705Z,140606.91
2023-01-25T12:58:37.851Z,140574.97
2023-01-25T13:03:53.211Z,140547.94
2023-01-25T13:09:01.880Z,140546.72
2023-01-25T13:14:28.894Z,140540.59
2023-01-25T13:19:57.817Z,140540.59
2023-01-25T13:25:54.204Z,140517.25
2023-01-25T13:31:03.186Z,140543.03
2023-01-25T13:36:25.364Z,140534.47
2023-01-25T13:41:28.762Z,140538.13
2023-01-25T13:46:34.306Z,140549.19
2023-01-25T13:51:39.393Z,140561.47
2023-01-25T13:56:42.946Z,140562.72
2023-01-25T14:01:48.720Z,140567.63
2023-01-25T14:06:57.373Z,140535.69
2023-01-25T14:12:03.994Z,140520.94
2023-01-25T14:17:17.496Z,140517.25
2023-01-25T14:22:26.161Z,140519.69
2023-01-25T14:27:29.670Z,140529.56
2023-01-25T14:32:36.533Z,140547.94
2023-01-25T14:37:45.805Z,140550.41
2023-01-25T14:42:49.769Z,140528.31
2023-01-25T14:47:59.510Z,140530.78
2023-01-25T14:53:08.741Z,140520.94
2023-01-25T14:58:15.337Z,140513.56
2023-01-25T15:03:22.470Z,140496.38
2023-01-25T15:08:33.381Z,140500.09
2023-01-25T15:13:36.842Z,140486.56
2023-01-25T15:18:47.987Z,140482.88
2023-01-25T15:23:51.746Z,140463.25
2023-01-25T15:28:56.249Z,140454.69
2023-01-25T15:34:03.656Z,140453.47
2023-01-25T15:39:07.473Z,140447.34
2023-01-25T15:44:11.038Z,140427.66
2023-01-25T15:49:18.567Z,140433.81
2023-01-25T15:54:22.351Z,140449.78
2023-01-25T15:59:27.120Z,140415.41
2023-01-25T16:04:32.038Z,140379.78
2023-01-25T16:09:35.453Z,140388.41
2023-01-25T16:14:38.860Z,140415.41
2023-01-25T16:19:46.081Z,140384.69
2023-01-25T16:24:49.637Z,140390.88
2023-01-25T16:29:53.315Z,140406.78
2023-01-25T16:34:58.091Z,140411.69
2023-01-25T16:40:03.775Z,140412.91
2023-01-25T16:45:08.682Z,140421.53
2023-01-25T16:50:14.968Z,140417.88
2023-01-25T16:55:19.450Z,140415.41
2023-01-25T17:00:41.121Z,140399.44
2023-01-25T17:06:01.969Z,140387.19
2023-01-25T17:16:56.108Z,140377.34
2023-01-25T17:22:00.008Z,140377.34
2023-01-25T17:27:08.341Z,140378.56
2023-01-25T17:32:11.934Z,140384.69
2023-01-25T17:37:15.391Z,140382.25
2023-01-25T17:42:22.165Z,140401.88
2023-01-25T17:47:25.577Z,140393.31
2023-01-25T17:52:28.991Z,140399.44
2023-01-25T17:57:35.539Z,140394.53
2023-01-25T18:02:39.502Z,140381.00
2023-01-25T18:07:45.163Z,140365.09
2023-01-25T18:13:03.583Z,140331.97
2023-01-25T18:18:08.493Z,140317.22
2023-01-25T18:23:14.476Z,140324.56
2023-01-25T18:28:19.256Z,140339.31
2023-01-25T18:33:25.022Z,140346.66
2023-01-25T18:38:31.087Z,140362.63
2023-01-25T18:43:40.156Z,140366.31
2023-01-25T18:48:51.179Z,140339.31
2023-01-25T18:59:16.713Z,140342.97
2023-01-25T19:04:21.354Z,140317.22
2023-01-25T19:09:29.638Z,140307.41
2023-01-25T19:14:35.471Z,140323.34
2023-01-25T19:19:41.035Z,140295.13
2023-01-25T19:25:00.000Z,140304.97
2023-01-25T19:35:45.921Z,140320.88
2023-01-25T19:40:58.092Z,140307.41
2023-01-25T19:46:15.262Z,140308.63
2023-01-25T19:51:42.595Z,140312.31
2023-01-25T19:56:48.974Z,140316.00
2023-01-25T20:01:53.914Z,140339.31
2023-01-25T20:06:57.390Z,140285.31
2023-01-25T20:12:03.125Z,140297.56
2023-01-25T20:17:10.229Z,140300.03
2023-01-25T20:22:15.364Z,140307.41
2023-01-25T20:27:20.292Z,140306.19
2023-01-25T20:32:32.764Z,140297.56
2023-01-25T20:37:37.519Z,140297.56
2023-01-25T20:42:40.995Z,140308.63
2023-01-25T20:47:48.402Z,140325.78
2023-01-25T20:52:52.450Z,140327.00
2023-01-25T20:57:55.954Z,140304.97
2023-01-25T21:03:01.104Z,140322.13
2023-01-25T21:08:04.603Z,140320.88
2023-01-25T21:13:08.211Z,140322.13
2023-01-25T21:18:13.090Z,140300.03
2023-01-25T21:23:16.615Z,140259.56
2023-01-25T21:28:20.093Z,140277.97
2023-01-25T21:33:25.681Z,140266.91
2023-01-25T21:38:29.011Z,140255.88
2023-01-25T21:43:56.649Z,140255.88
2023-01-25T21:49:20.334Z,140274.25
2023-01-25T21:54:26.935Z,140217.81
2023-01-25T21:59:30.615Z,140247.31
2023-01-25T22:04:36.171Z,140257.09
2023-01-25T22:09:40.177Z,140274.25
2023-01-25T22:14:43.751Z,140284.09
2023-01-25T22:19:49.077Z,140276.75
2023-01-25T22:24:52.577Z,140266.91
2023-01-25T22:29:56.033Z,140284.09
2023-01-25T22:35:01.545Z,140302.47
2023-01-25T22:40:06.325Z,140312.31
2023-01-25T22:45:10.316Z,140309.88
2023-01-25T22:50:15.223Z,140300.03
2023-01-25T22:55:20.853Z,140298.78
2023-01-25T23:00:24.926Z,140292.66
2023-01-25T23:05:33.361Z,140282.88
2023-01-25T23:10:36.747Z,140290.22
